Аэропорт: Остафьево. Москва

ICAO: UUMO

METAR:
2020-08-12 05:30:00
UUMO 120530Z 33004MPS 290V350 9999 BKN017 BKN029CB 14/10 Q1013 R26/090060 NOSIG RMK QFE744/0992
METAR:
Информация по данной станции не доступна